Killin, United Kingdom
Current Conditions -  °F | °C
As of 2:50 PM on Monday 22 Dec 2014 (Local Time) from EGPF Reporting Station
Light Rain Light Rain  
Wind Chill:   Ceiling: 1600
Heat Index:   Visibility: 2.7mi
Dew Point:   Wind: 13mph
Humidity: 93%   Direction: 250°WSW
Pressure: 29.65"   Gusts: NA
Location:  56.45°N, 4.33°W
Report Text: EGPF 221450Z AUTO 25011KT 4400 -RA BKN016 08/07 Q1004
Loading
Personal Weather Stations






























Interactive Weather Map New forecast layout! Learn more

10-Day Weather Forecast

Advertisements
Track Severe Weather on mobile